createdAt,value
2023-05-17T00:01:47.231Z,9.32
2023-05-17T00:06:47.145Z,8.86
2023-05-17T00:11:47.083Z,8.76
2023-05-17T00:16:47.020Z,8.60
2023-05-17T00:21:46.968Z,8.57
2023-05-17T00:26:46.899Z,9.04
2023-05-17T00:31:46.820Z,8.93
2023-05-17T00:36:46.738Z,9.42
2023-05-17T00:41:46.693Z,8.99
2023-05-17T00:46:46.625Z,8.90
2023-05-17T00:51:46.555Z,8.88
2023-05-17T00:56:46.471Z,8.90
2023-05-17T01:01:46.418Z,9.34
2023-05-17T01:06:46.345Z,9.24
2023-05-17T01:11:46.283Z,9.21
2023-05-17T01:16:46.217Z,8.83
2023-05-17T01:21:46.145Z,8.93
2023-05-17T01:26:46.145Z,10.52
2023-05-17T01:31:46.027Z,9.75
2023-05-17T01:36:45.944Z,9.28
2023-05-17T01:41:45.879Z,8.83
2023-05-17T01:46:45.816Z,8.58
2023-05-17T01:51:45.740Z,8.47
2023-05-17T01:56:45.677Z,8.45
2023-05-17T02:01:45.611Z,8.45
2023-05-17T02:06:45.554Z,8.39
2023-05-17T02:11:45.479Z,8.90
2023-05-17T02:16:45.403Z,9.35
2023-05-17T02:21:45.343Z,8.94
2023-05-17T02:26:45.271Z,8.96
2023-05-17T02:31:45.212Z,8.81
2023-05-17T02:36:45.142Z,8.69
2023-05-17T02:41:45.075Z,8.18
2023-05-17T02:46:45.003Z,8.03
2023-05-17T02:51:44.952Z,8.02
2023-05-17T02:56:44.876Z,8.12
2023-05-17T03:01:44.819Z,8.17
2023-05-17T03:06:44.747Z,8.44
2023-05-17T03:11:44.676Z,7.85
2023-05-17T03:16:44.609Z,7.66
2023-05-17T03:21:44.580Z,7.45
2023-05-17T03:26:44.473Z,7.40
2023-05-17T03:31:44.405Z,7.27
2023-05-17T03:36:44.342Z,7.29
2023-05-17T03:41:44.286Z,7.53
2023-05-17T03:46:44.227Z,7.97
2023-05-17T03:51:44.156Z,7.62
2023-05-17T03:56:44.079Z,7.59
2023-05-17T04:01:44.034Z,7.90
2023-05-17T04:06:43.946Z,8.58
2023-05-17T04:11:43.910Z,8.88
2023-05-17T04:16:43.813Z,9.57
2023-05-17T04:21:43.758Z,10.30
2023-05-17T04:26:43.690Z,10.58
2023-05-17T04:31:43.624Z,11.11
2023-05-17T04:36:43.542Z,11.80
2023-05-17T04:41:43.490Z,12.01
2023-05-17T04:46:43.412Z,11.78
2023-05-17T04:51:43.344Z,14.07
2023-05-17T04:56:43.275Z,16.41
2023-05-17T05:01:43.217Z,13.71
2023-05-17T05:06:43.145Z,14.72
2023-05-17T05:11:43.100Z,16.48
2023-05-17T05:16:43.009Z,18.40
2023-05-17T05:21:42.939Z,19.70
2023-05-17T05:26:42.919Z,19.69
2023-05-17T05:31:42.826Z,17.20
2023-05-17T05:36:42.776Z,17.07
2023-05-17T05:41:42.691Z,18.54
2023-05-17T05:46:42.605Z,17.62
2023-05-17T05:51:42.560Z,19.40
2023-05-17T05:56:42.477Z,20.41
2023-05-17T06:01:42.432Z,19.48
2023-05-17T06:06:42.459Z,18.49
2023-05-17T06:11:42.306Z,19.38
2023-05-17T06:16:42.258Z,18.57
2023-05-17T06:21:42.165Z,18.12
2023-05-17T06:26:42.096Z,16.67
2023-05-17T06:31:42.046Z,18.02
2023-05-17T06:36:41.956Z,16.98
2023-05-17T06:41:41.907Z,15.78
2023-05-17T06:46:41.829Z,15.43
2023-05-17T06:51:41.771Z,17.29
2023-05-17T06:56:41.694Z,18.07
2023-05-17T07:01:41.632Z,17.41
2023-05-17T07:06:41.588Z,16.16
2023-05-17T07:11:41.501Z,14.93
2023-05-17T07:16:41.456Z,17.94
2023-05-17T07:21:41.379Z,18.27
2023-05-17T07:26:41.298Z,17.62
2023-05-17T07:31:41.236Z,16.07
2023-05-17T07:36:41.183Z,15.35
2023-05-17T07:41:44.934Z,16.00
2023-05-17T07:46:41.111Z,14.37
2023-05-17T07:51:40.987Z,15.66
2023-05-17T07:56:40.914Z,16.98
2023-05-17T08:01:40.854Z,15.35
2023-05-17T08:06:40.776Z,17.20
2023-05-17T08:11:40.726Z,15.93
2023-05-17T08:16:40.640Z,16.55
2023-05-17T08:21:40.580Z,16.42
2023-05-17T08:26:40.518Z,14.90
2023-05-17T08:31:40.460Z,15.79
2023-05-17T08:36:40.392Z,14.57
2023-05-17T08:41:40.319Z,15.42
2023-05-17T08:46:40.247Z,14.64
2023-05-17T08:51:40.176Z,14.19
2023-05-17T08:56:40.129Z,14.28
2023-05-17T09:01:40.065Z,14.42
2023-05-17T09:06:39.982Z,13.99
2023-05-17T09:11:39.914Z,14.74
2023-05-17T09:16:39.839Z,14.78
2023-05-17T09:21:39.773Z,14.65
2023-05-17T09:26:39.701Z,14.27
2023-05-17T09:31:39.642Z,13.67
2023-05-17T09:36:39.577Z,13.95
2023-05-17T09:41:39.518Z,13.98
2023-05-17T09:46:39.433Z,14.07
2023-05-17T09:51:39.369Z,14.24
2023-05-17T09:56:39.331Z,14.50
2023-05-17T10:01:39.235Z,14.56
2023-05-17T10:06:46.499Z,14.84
2023-05-17T10:11:40.086Z,14.62
2023-05-17T10:16:39.062Z,15.12
2023-05-17T10:21:38.958Z,15.31
2023-05-17T10:26:38.896Z,15.45
2023-05-17T10:31:38.834Z,16.27
2023-05-17T10:36:38.784Z,16.50
2023-05-17T10:41:38.697Z,16.67
2023-05-17T10:46:38.633Z,16.85
2023-05-17T10:51:38.556Z,16.88
2023-05-17T10:56:38.537Z,16.73
2023-05-17T11:01:38.721Z,15.61
2023-05-17T11:06:38.550Z,15.31
2023-05-17T11:11:38.285Z,16.15
2023-05-17T11:16:38.221Z,16.53
2023-05-17T11:21:38.156Z,15.99
2023-05-17T11:26:38.095Z,15.56
2023-05-17T11:31:38.021Z,16.01
2023-05-17T11:36:37.964Z,16.31
2023-05-17T11:41:37.886Z,17.36
2023-05-17T11:46:37.818Z,17.85
2023-05-17T11:51:37.751Z,17.06
2023-05-17T11:56:43.516Z,16.03
2023-05-17T12:01:38.623Z,16.12
2023-05-17T12:06:37.597Z,16.42
2023-05-17T12:11:37.489Z,15.89
2023-05-17T12:16:37.481Z,15.76
2023-05-17T12:21:37.345Z,15.94
2023-05-17T12:26:37.310Z,16.68
2023-05-17T12:31:37.212Z,17.30
2023-05-17T12:36:37.151Z,16.67
2023-05-17T12:41:37.102Z,16.20
2023-05-17T12:46:37.032Z,16.14
2023-05-17T12:51:36.954Z,17.00
2023-05-17T12:56:36.879Z,16.58
2023-05-17T13:01:36.832Z,16.44
2023-05-17T13:06:36.750Z,16.41
2023-05-17T13:11:36.681Z,16.95
2023-05-17T13:16:36.654Z,17.29
2023-05-17T13:21:36.548Z,17.23
2023-05-17T13:26:36.483Z,16.75
2023-05-17T13:31:36.437Z,16.35
2023-05-17T13:36:36.359Z,16.40
2023-05-17T13:41:36.277Z,16.80
2023-05-17T13:46:36.211Z,17.04
2023-05-17T13:51:36.172Z,16.65
2023-05-17T13:56:36.082Z,16.67
2023-05-17T14:01:36.018Z,16.70
2023-05-17T14:06:35.950Z,16.50
2023-05-17T14:11:35.882Z,16.31
2023-05-17T14:16:35.824Z,15.96
2023-05-17T14:21:35.752Z,16.12
2023-05-17T14:26:35.683Z,15.96
2023-05-17T14:31:35.644Z,16.37
2023-05-17T14:36:35.576Z,16.18
2023-05-17T14:41:35.539Z,16.59
2023-05-17T14:46:35.410Z,16.60
2023-05-17T14:51:35.335Z,16.67
2023-05-17T14:56:35.286Z,16.38
2023-05-17T15:01:35.217Z,16.06
2023-05-17T15:06:35.156Z,16.15
2023-05-17T15:11:35.121Z,16.41
2023-05-17T15:16:35.140Z,16.52
2023-05-17T15:21:34.936Z,16.58
2023-05-17T15:26:34.897Z,16.58
2023-05-17T15:31:34.804Z,16.58
2023-05-17T15:36:34.768Z,16.86
2023-05-17T15:41:34.725Z,16.99
2023-05-17T15:46:34.610Z,16.67
2023-05-17T15:51:34.548Z,16.52
2023-05-17T15:56:34.489Z,16.65
2023-05-17T16:01:34.408Z,16.75
2023-05-17T16:06:34.473Z,16.90
2023-05-17T16:11:34.276Z,17.14
2023-05-17T16:16:34.218Z,17.51
2023-05-17T16:21:34.127Z,17.17
2023-05-17T16:26:34.085Z,17.46
2023-05-17T16:31:34.006Z,17.97
2023-05-17T16:36:33.941Z,17.32
2023-05-17T16:41:33.869Z,17.53
2023-05-17T16:46:33.832Z,17.70
2023-05-17T16:51:33.749Z,17.62
2023-05-17T16:56:33.690Z,17.64
2023-05-17T17:01:33.640Z,17.35
2023-05-17T17:06:33.550Z,17.03
2023-05-17T17:11:33.473Z,17.25
2023-05-17T17:16:33.469Z,17.32
2023-05-17T17:21:33.351Z,17.20
2023-05-17T17:26:33.282Z,17.08
2023-05-17T17:31:33.206Z,16.74
2023-05-17T17:36:33.148Z,16.83
2023-05-17T17:41:33.822Z,16.74
2023-05-17T17:46:33.091Z,16.50
2023-05-17T17:51:32.970Z,16.63
2023-05-17T17:56:32.911Z,16.53
2023-05-17T18:01:32.841Z,16.34
2023-05-17T18:06:32.753Z,16.00
2023-05-17T18:11:32.670Z,16.04
2023-05-17T18:16:32.750Z,16.04
2023-05-17T18:21:32.541Z,16.01
2023-05-17T18:26:32.469Z,15.70
2023-05-17T18:31:32.430Z,15.63
2023-05-17T18:36:32.331Z,15.60
2023-05-17T18:41:32.258Z,15.57
2023-05-17T18:46:32.280Z,15.26
2023-05-17T18:51:32.124Z,15.23
2023-05-17T18:56:32.058Z,15.11
2023-05-17T19:01:32.112Z,15.01
2023-05-17T19:06:31.928Z,14.74
2023-05-17T19:11:31.867Z,14.67
2023-05-17T19:16:31.799Z,14.46
2023-05-17T19:21:31.725Z,14.49
2023-05-17T19:26:31.731Z,14.46
2023-05-17T19:31:31.767Z,14.46
2023-05-17T19:36:31.533Z,14.25
2023-05-17T19:41:31.452Z,14.31
2023-05-17T19:46:31.440Z,14.01
2023-05-17T19:51:31.318Z,13.95
2023-05-17T19:56:31.268Z,14.09
2023-05-17T20:01:31.279Z,13.88
2023-05-17T20:06:31.130Z,13.81
2023-05-17T20:11:31.053Z,13.56
2023-05-17T20:16:31.186Z,13.61
2023-05-17T20:21:30.916Z,13.55
2023-05-17T20:26:30.855Z,13.37
2023-05-17T20:31:30.824Z,13.21
2023-05-17T20:36:30.722Z,13.30
2023-05-17T20:41:30.634Z,13.71
2023-05-17T20:46:30.638Z,13.47
2023-05-17T20:51:30.514Z,13.29
2023-05-17T20:56:30.442Z,13.33
2023-05-17T21:01:30.384Z,13.65
2023-05-17T21:06:32.498Z,13.56
2023-05-17T21:11:30.251Z,13.17
2023-05-17T21:16:30.180Z,12.97
2023-05-17T21:21:30.110Z,12.78
2023-05-17T21:26:30.132Z,12.71
2023-05-17T21:31:30.058Z,13.17
2023-05-17T21:36:29.918Z,13.18
2023-05-17T21:41:29.861Z,12.84
2023-05-17T21:46:29.811Z,12.34
2023-05-17T21:51:29.707Z,12.20
2023-05-17T21:56:29.647Z,11.74
2023-05-17T22:01:29.624Z,11.57
2023-05-17T22:06:29.502Z,11.83
2023-05-17T22:11:29.443Z,11.77
2023-05-17T22:16:29.389Z,11.56
2023-05-17T22:21:29.298Z,11.35
2023-05-17T22:26:29.237Z,11.57
2023-05-17T22:31:29.203Z,11.74
2023-05-17T22:36:29.096Z,11.77
2023-05-17T22:41:29.053Z,11.49
2023-05-17T22:46:28.975Z,11.17
2023-05-17T22:51:28.893Z,11.09
2023-05-17T22:56:28.836Z,10.91
2023-05-17T23:01:28.873Z,10.78
2023-05-17T23:06:28.704Z,10.63
2023-05-17T23:11:28.653Z,10.40
2023-05-17T23:16:28.615Z,10.28
2023-05-17T23:21:28.500Z,10.24
2023-05-17T23:26:28.480Z,10.19
2023-05-17T23:31:28.468Z,10.36
2023-05-17T23:36:28.329Z,10.18
2023-05-17T23:41:28.236Z,10.10
2023-05-17T23:46:28.205Z,10.36
2023-05-17T23:51:28.100Z,10.83
2023-05-17T23:56:28.047Z,10.62
